createdAt,value
2019-05-19T00:01:08.750Z,66.90
2019-05-19T00:03:39.102Z,66.95
2019-05-19T00:06:09.604Z,67.03
2019-05-19T00:08:40.463Z,68.83
2019-05-19T00:11:10.837Z,69.39
2019-05-19T00:13:41.271Z,68.60
2019-05-19T00:16:11.828Z,68.14
2019-05-19T00:18:42.381Z,67.60
2019-05-19T00:21:12.909Z,69.57
2019-05-19T00:23:43.277Z,71.68
2019-05-19T00:26:14.046Z,71.14
2019-05-19T00:28:44.751Z,69.92
2019-05-19T00:31:15.214Z,69.56
2019-05-19T00:33:45.701Z,69.90
2019-05-19T00:36:19.414Z,70.51
2019-05-19T00:38:48.487Z,71.43
2019-05-19T00:41:18.799Z,72.20
2019-05-19T00:43:49.870Z,71.87
2019-05-19T00:46:20.423Z,72.25
2019-05-19T00:48:50.823Z,73.35
2019-05-19T00:51:22.170Z,74.24
2019-05-19T00:53:52.525Z,72.76
2019-05-19T00:56:23.579Z,71.60
2019-05-19T00:58:55.163Z,71.47
2019-05-19T01:01:25.559Z,72.42
2019-05-19T01:03:56.328Z,74.09
2019-05-19T01:06:26.985Z,74.82
2019-05-19T01:08:57.346Z,74.16
2019-05-19T01:11:28.093Z,73.22
2019-05-19T01:13:58.731Z,73.25
2019-05-19T01:16:29.078Z,74.32
2019-05-19T01:18:59.874Z,73.74
2019-05-19T01:21:30.716Z,74.11
2019-05-19T01:24:01.419Z,74.21
2019-05-19T01:26:31.996Z,74.50
2019-05-19T01:29:02.431Z,75.12
2019-05-19T01:31:33.409Z,75.61
2019-05-19T01:34:04.128Z,75.18
2019-05-19T01:36:34.474Z,75.07
2019-05-19T01:39:05.529Z,75.56
2019-05-19T01:41:36.257Z,75.79
2019-05-19T01:44:06.583Z,75.51
2019-05-19T01:46:37.132Z,75.75
2019-05-19T01:49:07.517Z,74.51
2019-05-19T01:51:37.848Z,73.26
2019-05-19T01:54:08.331Z,73.67
2019-05-19T01:56:38.680Z,72.34
2019-05-19T01:59:09.419Z,72.55
2019-05-19T02:01:40.041Z,73.54
2019-05-19T02:04:10.355Z,72.88
2019-05-19T02:06:40.995Z,73.44
2019-05-19T02:09:12.755Z,75.49
2019-05-19T02:11:43.174Z,76.53
2019-05-19T02:14:13.578Z,77.07
2019-05-19T02:16:44.468Z,76.55
2019-05-19T02:19:14.800Z,76.38
2019-05-19T02:21:45.087Z,76.27
2019-05-19T02:24:15.790Z,75.05
2019-05-19T02:26:46.430Z,76.39
2019-05-19T02:29:17.247Z,76.19
2019-05-19T02:31:47.564Z,74.52
2019-05-19T02:34:17.946Z,75.44
2019-05-19T02:36:48.635Z,75.23
2019-05-19T02:39:18.984Z,73.59
2019-05-19T02:41:50.936Z,73.01
2019-05-19T02:44:22.773Z,74.09
2019-05-19T02:46:54.073Z,74.53
2019-05-19T02:49:27.024Z,75.23
2019-05-19T02:51:59.405Z,74.58
2019-05-19T02:54:30.873Z,74.96
2019-05-19T02:57:03.103Z,75.56
2019-05-19T02:59:34.911Z,74.86
2019-05-19T03:02:09.079Z,76.12
2019-05-19T03:04:39.827Z,76.93
2019-05-19T03:07:10.398Z,75.75
2019-05-19T03:09:40.749Z,75.55
2019-05-19T03:12:11.724Z,76.78
2019-05-19T03:14:42.574Z,78.65
2019-05-19T03:17:12.907Z,78.81
2019-05-19T03:19:43.326Z,78.04
2019-05-19T03:22:13.752Z,79.83
2019-05-19T03:24:44.173Z,80.01
2019-05-19T03:27:14.737Z,80.40
2019-05-19T03:29:50.140Z,79.40
2019-05-19T03:32:32.773Z,78.59
2019-05-19T03:35:03.543Z,78.34
2019-05-19T03:37:33.879Z,78.13
2019-05-19T03:40:06.193Z,78.17
2019-05-19T03:42:36.948Z,79.62
2019-05-19T03:45:07.374Z,79.10
2019-05-19T03:47:37.934Z,78.75
2019-05-19T03:50:08.385Z,78.39
2019-05-19T03:52:38.684Z,79.01
2019-05-19T03:55:09.158Z,78.29
2019-05-19T03:57:39.924Z,78.22
2019-05-19T04:00:10.843Z,77.10
2019-05-19T04:02:41.190Z,76.44
2019-05-19T04:05:12.219Z,76.18
2019-05-19T04:07:42.744Z,76.14
2019-05-19T04:10:13.507Z,75.57
2019-05-19T04:12:44.338Z,74.90
2019-05-19T04:15:15.854Z,74.74
2019-05-19T04:17:46.198Z,74.10
2019-05-19T04:20:17.383Z,73.73
2019-05-19T04:22:48.041Z,72.59
2019-05-19T04:25:18.386Z,72.12
2019-05-19T04:27:48.821Z,71.41
2019-05-19T04:30:19.803Z,70.71
2019-05-19T04:32:50.121Z,70.17
2019-05-19T04:35:20.908Z,69.28
2019-05-19T04:37:51.289Z,69.18
2019-05-19T04:40:23.021Z,68.60
2019-05-19T04:42:53.793Z,67.97
2019-05-19T04:45:24.091Z,67.53
2019-05-19T04:47:54.645Z,67.02
2019-05-19T04:50:25.118Z,67.36
2019-05-19T04:52:55.456Z,66.99
2019-05-19T04:55:25.919Z,66.08
2019-05-19T04:57:56.581Z,65.92
2019-05-19T05:00:26.959Z,64.82
2019-05-19T05:02:57.285Z,64.22
2019-05-19T05:05:28.110Z,63.46
2019-05-19T05:07:58.800Z,62.90
2019-05-19T05:10:29.664Z,59.63
2019-05-19T05:13:00.180Z,59.63
2019-05-19T05:15:30.489Z,57.57
2019-05-19T05:18:00.927Z,57.09
2019-05-19T05:20:31.227Z,56.88
2019-05-19T05:23:02.420Z,55.61
2019-05-19T05:25:33.228Z,54.81
2019-05-19T05:28:03.745Z,54.92
2019-05-19T05:30:34.129Z,53.75
2019-05-19T05:33:04.955Z,53.92
2019-05-19T05:35:35.609Z,54.01
2019-05-19T05:38:06.103Z,54.02
2019-05-19T05:40:36.461Z,53.90
2019-05-19T05:43:06.777Z,54.54
2019-05-19T05:45:37.474Z,53.84
2019-05-19T05:48:07.816Z,53.50
2019-05-19T05:50:38.227Z,53.59
2019-05-19T05:53:08.728Z,53.94
2019-05-19T05:55:39.514Z,53.60
2019-05-19T05:58:09.807Z,53.48
2019-05-19T06:00:40.361Z,53.01
2019-05-19T06:03:11.039Z,52.64
2019-05-19T06:05:41.334Z,53.48
2019-05-19T06:08:13.021Z,53.68
2019-05-19T06:10:43.325Z,52.74
2019-05-19T06:13:14.191Z,50.16
2019-05-19T06:15:44.564Z,50.13
2019-05-19T06:18:14.914Z,50.55
2019-05-19T06:20:46.268Z,50.13
2019-05-19T06:23:17.178Z,50.30
2019-05-19T06:25:47.498Z,49.96
2019-05-19T06:28:18.126Z,49.44
2019-05-19T06:30:48.811Z,49.20
2019-05-19T06:33:19.152Z,48.75
2019-05-19T06:35:49.608Z,47.81
2019-05-19T06:38:20.302Z,45.79
2019-05-19T06:40:50.619Z,46.17
2019-05-19T06:43:21.273Z,47.44
2019-05-19T06:45:51.584Z,47.03
2019-05-19T06:48:21.996Z,46.73
2019-05-19T06:50:52.407Z,45.53
2019-05-19T06:53:22.692Z,46.09
2019-05-19T06:55:53.132Z,44.68
2019-05-19T06:58:23.868Z,44.15
2019-05-19T07:00:54.270Z,44.84
2019-05-19T07:03:24.608Z,43.33
2019-05-19T07:05:55.100Z,42.60
2019-05-19T07:08:25.607Z,43.25
2019-05-19T07:10:55.947Z,43.65
2019-05-19T07:13:26.459Z,43.75
2019-05-19T07:15:56.885Z,42.97
2019-05-19T07:18:27.294Z,41.43
2019-05-19T07:20:57.630Z,41.32
2019-05-19T07:23:28.903Z,41.58
2019-05-19T07:25:59.856Z,42.30
2019-05-19T07:28:30.316Z,41.59
2019-05-19T07:31:00.616Z,42.09
2019-05-19T07:33:31.238Z,41.99
2019-05-19T07:36:01.913Z,41.44
2019-05-19T07:38:32.256Z,41.00
2019-05-19T07:41:03.039Z,40.46
2019-05-19T07:43:33.845Z,39.37
2019-05-19T07:46:04.239Z,38.76
2019-05-19T07:48:34.804Z,38.80
2019-05-19T07:51:05.159Z,39.50
2019-05-19T07:53:43.121Z,38.37
2019-05-19T07:56:08.321Z,38.04
2019-05-19T07:58:39.670Z,38.13
2019-05-19T08:01:10.426Z,37.03
2019-05-19T08:03:41.103Z,35.91
2019-05-19T08:06:11.653Z,35.55
2019-05-19T08:08:42.146Z,34.84
2019-05-19T08:11:12.754Z,34.40
2019-05-19T08:13:43.165Z,34.81
2019-05-19T08:16:13.477Z,34.21
2019-05-19T08:18:43.934Z,35.20
2019-05-19T08:21:14.346Z,34.13
2019-05-19T08:23:59.271Z,33.43
2019-05-19T08:26:18.322Z,32.97
2019-05-19T08:28:48.896Z,33.39
2019-05-19T08:31:19.345Z,33.21
2019-05-19T08:33:50.145Z,31.74
2019-05-19T08:36:20.901Z,32.24
2019-05-19T08:38:51.408Z,31.18
2019-05-19T08:41:21.947Z,31.91
2019-05-19T08:43:53.453Z,32.02
2019-05-19T08:46:23.970Z,32.24
2019-05-19T08:48:54.342Z,32.14
2019-05-19T08:51:24.776Z,32.13
2019-05-19T08:53:55.443Z,32.37
2019-05-19T08:56:25.873Z,32.33
2019-05-19T08:58:56.273Z,32.28
2019-05-19T09:01:27.106Z,32.05
2019-05-19T09:03:57.900Z,31.53
2019-05-19T09:06:28.611Z,31.00
2019-05-19T09:08:59.135Z,30.63
2019-05-19T09:11:29.778Z,30.39
2019-05-19T09:14:00.104Z,29.77
2019-05-19T09:16:30.490Z,30.37
2019-05-19T09:19:00.902Z,31.06
2019-05-19T09:21:31.282Z,30.87
2019-05-19T09:24:02.203Z,30.73
2019-05-19T09:26:32.582Z,31.29
2019-05-19T09:29:03.357Z,31.24
2019-05-19T09:31:34.128Z,30.95
2019-05-19T09:34:04.441Z,30.96
2019-05-19T09:36:34.829Z,31.46
2019-05-19T09:39:07.096Z,31.68
2019-05-19T09:41:37.449Z,31.37
2019-05-19T09:44:07.907Z,30.92
2019-05-19T09:46:38.662Z,31.02
2019-05-19T09:49:46.241Z,30.34
2019-05-19T09:52:17.254Z,30.49
2019-05-19T09:54:48.153Z,30.89
2019-05-19T09:57:18.614Z,30.02
2019-05-19T09:59:49.346Z,30.26
2019-05-19T10:02:19.711Z,30.41
2019-05-19T10:04:50.051Z,30.45
2019-05-19T10:07:21.846Z,30.62
2019-05-19T10:10:06.836Z,29.39
2019-05-19T10:12:37.190Z,28.94
2019-05-19T10:15:09.715Z,28.25
2019-05-19T10:17:40.126Z,27.61
2019-05-19T10:20:10.832Z,28.34
2019-05-19T10:22:41.769Z,28.45
2019-05-19T10:25:22.531Z,27.62
2019-05-19T10:27:45.283Z,26.98
2019-05-19T10:30:17.734Z,27.04
2019-05-19T10:32:48.078Z,27.51
2019-05-19T10:35:19.096Z,26.81
2019-05-19T10:37:49.900Z,25.26
2019-05-19T10:40:20.266Z,25.76
2019-05-19T10:42:50.961Z,25.47
2019-05-19T10:45:21.527Z,25.18
2019-05-19T10:47:51.863Z,24.75
2019-05-19T10:50:22.533Z,25.10
2019-05-19T10:52:53.230Z,25.10
2019-05-19T10:55:35.525Z,24.29
2019-05-19T10:57:55.695Z,24.46
2019-05-19T11:00:26.155Z,24.23
2019-05-19T11:02:56.993Z,24.00
2019-05-19T11:05:27.816Z,24.12
2019-05-19T11:07:58.322Z,24.39
2019-05-19T11:10:28.871Z,23.68
2019-05-19T11:12:59.589Z,23.27
2019-05-19T11:16:22.938Z,22.80
2019-05-19T11:18:53.578Z,22.15
2019-05-19T11:21:24.186Z,22.34
2019-05-19T11:23:55.523Z,22.60
2019-05-19T11:26:25.820Z,22.57
2019-05-19T11:28:57.911Z,21.69
2019-05-19T11:31:28.530Z,20.78
2019-05-19T11:33:59.235Z,21.43
2019-05-19T11:36:29.617Z,22.89
2019-05-19T11:39:00.131Z,22.91
2019-05-19T11:41:30.732Z,21.87
2019-05-19T11:44:01.068Z,21.56
2019-05-19T11:47:06.907Z,21.52
2019-05-19T11:49:37.700Z,20.16
2019-05-19T11:52:08.230Z,20.14
2019-05-19T11:54:38.603Z,20.76
2019-05-19T11:57:09.267Z,20.84
2019-05-19T11:59:39.789Z,20.37
2019-05-19T12:02:10.105Z,20.35
2019-05-19T12:04:41.019Z,21.03
2019-05-19T12:07:11.311Z,21.30
2019-05-19T12:09:41.954Z,22.40
2019-05-19T12:12:12.689Z,22.41
2019-05-19T12:14:43.106Z,23.12
2019-05-19T12:17:14.763Z,23.06
2019-05-19T12:19:45.476Z,23.59
2019-05-19T12:22:16.041Z,24.23
2019-05-19T12:24:46.699Z,24.61
2019-05-19T12:27:17.546Z,24.65
2019-05-19T12:29:47.955Z,25.52
2019-05-19T12:32:18.558Z,25.75
2019-05-19T12:34:49.290Z,25.74
2019-05-19T12:37:19.819Z,25.73
2019-05-19T12:39:50.288Z,25.61
2019-05-19T12:42:20.847Z,25.91
2019-05-19T12:44:51.287Z,25.58
2019-05-19T12:47:21.662Z,25.43
2019-05-19T12:49:52.370Z,24.98
2019-05-19T12:52:22.962Z,25.66
2019-05-19T12:54:53.353Z,25.08
2019-05-19T12:57:24.054Z,25.50
2019-05-19T12:59:54.640Z,25.70
2019-05-19T13:02:25.053Z,25.88
2019-05-19T13:05:04.698Z,25.87
2019-05-19T13:07:27.867Z,26.69
2019-05-19T13:09:58.314Z,26.15
2019-05-19T13:12:28.784Z,26.44
2019-05-19T13:14:59.127Z,26.92
2019-05-19T13:17:29.515Z,27.40
2019-05-19T13:20:01.190Z,27.70
2019-05-19T13:22:31.546Z,27.83
2019-05-19T13:25:02.188Z,28.07
2019-05-19T13:27:33.773Z,27.96
2019-05-19T13:30:04.501Z,28.28
2019-05-19T13:32:34.981Z,28.06
2019-05-19T13:35:06.107Z,28.21
2019-05-19T13:37:36.467Z,28.51
2019-05-19T13:40:07.217Z,28.53
2019-05-19T13:42:37.596Z,29.20
2019-05-19T13:45:10.217Z,29.48
2019-05-19T13:47:41.013Z,29.33
2019-05-19T13:50:12.509Z,29.31
2019-05-19T13:52:43.026Z,29.56
2019-05-19T13:55:14.056Z,29.47
2019-05-19T13:57:44.416Z,29.31
2019-05-19T14:00:16.309Z,29.19
2019-05-19T14:02:46.953Z,29.52
2019-05-19T14:05:17.299Z,29.35
2019-05-19T14:07:47.630Z,29.03
2019-05-19T14:10:18.189Z,29.15
2019-05-19T14:12:48.525Z,29.33
2019-05-19T14:15:18.956Z,28.29
2019-05-19T14:17:49.244Z,28.70
2019-05-19T14:20:19.860Z,28.82
2019-05-19T14:22:50.584Z,28.84
2019-05-19T14:25:21.047Z,29.83
2019-05-19T14:27:51.351Z,30.33
2019-05-19T14:30:22.041Z,30.33
2019-05-19T14:32:52.611Z,31.78
2019-05-19T14:35:23.094Z,32.18
2019-05-19T14:37:53.935Z,33.45
2019-05-19T14:40:24.313Z,34.44
2019-05-19T14:42:59.143Z,35.00
2019-05-19T14:45:29.571Z,35.69
2019-05-19T14:47:59.868Z,36.43
2019-05-19T14:50:30.702Z,36.68
2019-05-19T14:53:01.149Z,36.97
2019-05-19T14:55:32.600Z,37.38
2019-05-19T14:58:03.293Z,38.71
2019-05-19T15:00:34.041Z,38.77
2019-05-19T15:03:04.382Z,39.13
2019-05-19T15:05:35.134Z,38.97
2019-05-19T15:08:05.793Z,38.87
2019-05-19T15:10:36.094Z,39.19
2019-05-19T15:13:06.598Z,39.52
2019-05-19T15:15:37.004Z,38.90
2019-05-19T15:18:07.355Z,39.45
2019-05-19T15:20:37.788Z,39.51
2019-05-19T15:23:08.157Z,39.92
2019-05-19T15:25:38.922Z,39.72
2019-05-19T15:28:10.742Z,39.03
2019-05-19T15:30:41.061Z,38.26
2019-05-19T15:33:11.657Z,37.74
2019-05-19T15:35:42.318Z,39.11
2019-05-19T15:38:12.625Z,38.96
2019-05-19T15:40:43.004Z,37.43
2019-05-19T15:43:13.855Z,35.68
2019-05-19T15:45:44.209Z,33.61
2019-05-19T15:48:14.510Z,31.92
2019-05-19T15:50:45.150Z,31.24
2019-05-19T15:53:15.501Z,30.46
2019-05-19T15:55:46.254Z,31.62
2019-05-19T15:58:17.242Z,32.49
2019-05-19T16:00:47.885Z,32.50
2019-05-19T16:03:18.732Z,31.92
2019-05-19T16:05:49.065Z,31.73
2019-05-19T16:08:19.421Z,31.69
2019-05-19T16:10:50.070Z,31.05
2019-05-19T16:13:22.027Z,32.10
2019-05-19T16:15:53.480Z,32.99
2019-05-19T16:18:24.172Z,33.76
2019-05-19T16:20:54.822Z,34.49
2019-05-19T16:23:25.262Z,36.18
2019-05-19T16:25:55.644Z,37.51
2019-05-19T16:28:30.590Z,39.54
2019-05-19T16:30:58.234Z,40.12
2019-05-19T16:33:28.902Z,41.12
2019-05-19T16:35:59.298Z,41.55
2019-05-19T16:38:29.692Z,42.07
2019-05-19T16:41:00.085Z,42.70
2019-05-19T16:43:30.445Z,43.95
2019-05-19T16:46:01.193Z,44.54
2019-05-19T16:48:32.042Z,44.97
2019-05-19T16:51:02.386Z,45.74
2019-05-19T16:53:33.122Z,45.76
2019-05-19T16:56:03.832Z,45.88
2019-05-19T16:58:44.887Z,46.51
2019-05-19T17:01:06.645Z,46.78
2019-05-19T17:03:37.374Z,47.58
2019-05-19T17:06:07.729Z,47.85
2019-05-19T17:08:38.098Z,48.05
2019-05-19T17:11:18.025Z,48.63
2019-05-19T17:13:41.417Z,49.04
2019-05-19T17:16:11.785Z,48.90
2019-05-19T17:18:43.637Z,49.41
2019-05-19T17:21:14.317Z,49.33
2019-05-19T17:23:44.607Z,49.49
2019-05-19T17:26:15.460Z,49.70
2019-05-19T17:28:59.759Z,49.27
2019-05-19T17:31:18.342Z,48.86
2019-05-19T17:33:48.929Z,49.32
2019-05-19T17:36:19.221Z,49.35
2019-05-19T17:38:49.936Z,48.96
2019-05-19T17:41:20.353Z,48.45
2019-05-19T17:43:50.649Z,49.10
2019-05-19T17:46:21.410Z,50.00
2019-05-19T17:48:52.115Z,50.47
2019-05-19T17:51:22.482Z,51.53
2019-05-19T17:53:53.135Z,52.33
2019-05-19T17:56:24.105Z,52.36
2019-05-19T17:58:54.793Z,52.79
2019-05-19T18:01:25.538Z,52.43
2019-05-19T18:03:55.880Z,52.85
2019-05-19T18:06:29.704Z,52.28
2019-05-19T18:08:58.697Z,52.47
2019-05-19T18:11:28.993Z,52.64
2019-05-19T18:13:59.395Z,52.50
2019-05-19T18:16:30.138Z,53.10
2019-05-19T18:19:01.428Z,53.05
2019-05-19T18:21:32.048Z,52.99
2019-05-19T18:24:02.807Z,52.91
2019-05-19T18:26:33.180Z,52.25
2019-05-19T18:29:05.065Z,52.93
2019-05-19T18:31:35.599Z,52.66
2019-05-19T18:34:06.431Z,51.98
2019-05-19T18:36:37.128Z,52.13
2019-05-19T18:39:07.703Z,51.18
2019-05-19T18:41:38.111Z,51.88
2019-05-19T18:44:08.870Z,52.03
2019-05-19T18:46:39.165Z,52.01
2019-05-19T18:49:10.039Z,52.42
2019-05-19T18:51:40.957Z,52.44
2019-05-19T18:54:11.371Z,52.39
2019-05-19T18:56:41.666Z,52.21
2019-05-19T18:59:12.564Z,51.77
2019-05-19T19:01:43.198Z,51.48
2019-05-19T19:04:13.646Z,51.81
2019-05-19T19:06:45.159Z,51.72
2019-05-19T19:09:15.483Z,51.39
2019-05-19T19:11:45.860Z,51.32
2019-05-19T19:14:16.159Z,51.89
2019-05-19T19:16:46.462Z,51.67
2019-05-19T19:19:17.327Z,52.16
2019-05-19T19:21:47.901Z,52.11
2019-05-19T19:24:18.242Z,52.62
2019-05-19T19:26:48.860Z,52.96
2019-05-19T19:29:19.521Z,53.04
2019-05-19T19:31:49.845Z,53.16
2019-05-19T19:34:20.644Z,53.16
2019-05-19T19:36:50.928Z,53.14
2019-05-19T19:39:21.566Z,52.98
2019-05-19T19:41:51.893Z,52.79
2019-05-19T19:44:22.239Z,52.78
2019-05-19T19:46:53.750Z,52.74
2019-05-19T19:49:24.567Z,52.98
2019-05-19T19:51:54.933Z,53.14
2019-05-19T19:54:25.528Z,53.01
2019-05-19T19:56:56.180Z,53.15
2019-05-19T19:59:26.474Z,52.82
2019-05-19T20:01:57.063Z,52.01
2019-05-19T20:04:29.391Z,52.78
2019-05-19T20:06:59.712Z,52.16
2019-05-19T20:09:30.170Z,51.13
2019-05-19T20:12:00.513Z,51.02
2019-05-19T20:14:31.143Z,50.02
2019-05-19T20:17:01.757Z,50.37
2019-05-19T20:19:32.148Z,48.94
2019-05-19T20:22:02.761Z,50.00
2019-05-19T20:24:33.316Z,49.28
2019-05-19T20:27:03.654Z,48.97
2019-05-19T20:29:34.018Z,48.67
2019-05-19T20:32:04.849Z,49.50
2019-05-19T20:34:35.146Z,49.47
2019-05-19T20:37:05.823Z,50.40
2019-05-19T20:39:36.467Z,51.38
2019-05-19T20:42:06.861Z,51.56
2019-05-19T20:44:37.494Z,51.85
2019-05-19T20:47:07.840Z,52.36
2019-05-19T20:49:38.240Z,54.14
2019-05-19T20:52:09.073Z,55.71
2019-05-19T20:54:39.400Z,58.96
2019-05-19T20:57:10.917Z,59.33
2019-05-19T20:59:41.451Z,57.74
2019-05-19T21:02:11.901Z,57.83
2019-05-19T21:04:42.281Z,57.79
2019-05-19T21:07:12.983Z,58.25
2019-05-19T21:09:43.652Z,58.42
2019-05-19T21:12:13.999Z,57.75
2019-05-19T21:14:44.659Z,58.01
2019-05-19T21:17:15.381Z,58.61
2019-05-19T21:19:47.403Z,58.66
2019-05-19T21:22:18.007Z,58.67
2019-05-19T21:24:48.709Z,58.71
2019-05-19T21:27:19.035Z,58.69
2019-05-19T21:29:49.391Z,59.09
2019-05-19T21:32:19.978Z,58.44
2019-05-19T21:34:50.317Z,58.83
2019-05-19T21:37:20.647Z,61.57
2019-05-19T21:39:51.338Z,60.79
2019-05-19T21:42:21.710Z,60.25
2019-05-19T21:44:52.335Z,62.06
2019-05-19T21:47:22.822Z,59.30
2019-05-19T21:49:53.161Z,60.52
2019-05-19T21:52:27.427Z,60.52
2019-05-19T21:54:57.776Z,51.93
2019-05-19T21:57:29.209Z,56.66
2019-05-19T21:59:59.999Z,53.59
2019-05-19T22:02:30.574Z,49.50
2019-05-19T22:05:01.611Z,53.38
2019-05-19T22:07:48.801Z,50.79
2019-05-19T22:10:19.230Z,53.69
2019-05-19T22:12:49.528Z,56.06
2019-05-19T22:15:20.329Z,53.35
2019-05-19T22:17:50.635Z,53.35
2019-05-19T22:20:21.906Z,54.92
2019-05-19T22:22:52.459Z,56.11
2019-05-19T22:25:22.855Z,56.85
2019-05-19T22:27:53.631Z,55.62
2019-05-19T22:30:24.510Z,57.99
2019-05-19T22:32:55.074Z,57.99
2019-05-19T22:35:25.521Z,58.96
2019-05-19T22:37:55.981Z,57.75
2019-05-19T22:40:27.244Z,57.78
2019-05-19T22:42:57.844Z,58.07
2019-05-19T22:45:28.445Z,56.22
2019-05-19T22:47:58.801Z,58.24
2019-05-19T22:50:29.337Z,61.20
2019-05-19T22:52:59.740Z,59.46
2019-05-19T22:55:30.558Z,60.29
2019-05-19T22:58:01.267Z,62.39
2019-05-19T23:00:31.595Z,62.39
2019-05-19T23:03:02.146Z,62.68
2019-05-19T23:05:32.618Z,67.35
2019-05-19T23:08:02.908Z,64.78
2019-05-19T23:10:33.271Z,63.70
2019-05-19T23:13:04.160Z,67.57
2019-05-19T23:15:34.531Z,66.37
2019-05-19T23:18:04.904Z,66.37
2019-05-19T23:20:35.474Z,66.67
2019-05-19T23:23:06.224Z,66.37
2019-05-19T23:25:36.883Z,65.62
2019-05-19T23:28:07.244Z,63.69
2019-05-19T23:30:38.736Z,64.81
2019-05-19T23:33:09.629Z,66.20
2019-05-19T23:35:39.943Z,64.35
2019-05-19T23:38:10.340Z,64.25
2019-05-19T23:40:40.751Z,63.08
2019-05-19T23:43:12.263Z,64.22
2019-05-19T23:45:42.707Z,65.93
2019-05-19T23:48:13.279Z,64.24
2019-05-19T23:50:44.093Z,64.16
2019-05-19T23:53:14.724Z,63.87
2019-05-19T23:55:45.030Z,64.17
2019-05-19T23:58:15.349Z,64.17
